Time;durP1;ratioP1;P1;durP2;ratioP2;P2;SDS_P1;SDS_P2;PMS_P1;PMS_P2;Temp;Humidity;BMP_temperature;BMP_pressure;BME280_temperature;BME280_humidity;BME280_pressure;Samples;Min_cycle;Max_cycle;Signal;HPM_P1;HPM_P2
2023/06/28 00:00:48;;;;;;;9.95;7.70;;;;;;;;;;6339014;22;20010;-67
2023/06/28 00:03:15;;;;;;;13.80;8.18;;;;;;;;;;6311888;22;20098;-67
2023/06/28 00:05:43;;;;;;;9.77;8.60;;;;;;;;;;6339553;22;20072;-67
2023/06/28 00:08:10;;;;;;;11.57;8.10;;;;;;;;;;6339333;22;20072;-67
2023/06/28 00:10:38;;;;;;;9.13;7.60;;;;;;;;;;6339464;22;20333;-68
2023/06/28 00:13:06;;;;;;;12.70;7.90;;;;;;;;;;6338909;22;20441;-67
2023/06/28 00:15:33;;;;;;;11.20;8.10;;;;;;;;;;6339075;22;20093;-68
2023/06/28 00:18:04;;;;;;;11.40;7.50;;;;;;;;;;6339452;22;20393;-68
2023/06/28 00:20:31;;;;;;;9.70;7.70;;;;;;;;;;6339091;22;20019;-67
2023/06/28 00:22:59;;;;;;;9.88;7.95;;;;;;;;;;6338942;22;20427;-67
2023/06/28 00:25:27;;;;;;;11.70;8.30;;;;;;;;;;6311297;22;20044;-67
2023/06/28 00:27:54;;;;;;;11.48;8.18;;;;;;;;;;6338316;22;20015;-67
2023/06/28 00:30:22;;;;;;;8.95;7.97;;;;;;;;;;6311482;22;20101;-68
2023/06/28 00:32:52;;;;;;;10.18;8.05;;;;;;;;;;6311288;22;20015;-68
2023/06/28 00:35:20;;;;;;;8.98;7.97;;;;;;;;;;6310884;22;20069;-67
2023/06/28 00:37:47;;;;;;;15.00;8.10;;;;;;;;;;6312087;22;20010;-67
2023/06/28 00:40:15;;;;;;;9.65;8.00;;;;;;;;;;6339156;22;20014;-67
2023/06/28 00:42:42;;;;;;;11.43;7.82;;;;;;;;;;6311154;22;20019;-67
2023/06/28 00:45:13;;;;;;;10.90;8.32;;;;;;;;;;6311198;22;20011;-67
2023/06/28 00:47:42;;;;;;;11.38;7.85;;;;;;;;;;6311502;22;20019;-67
2023/06/28 00:50:10;;;;;;;13.07;8.43;;;;;;;;;;6311432;22;20019;-67
2023/06/28 00:52:37;;;;;;;9.48;7.93;;;;;;;;;;6338578;22;20015;-67
2023/06/28 00:55:05;;;;;;;9.63;7.85;;;;;;;;;;6310983;22;20014;-67
2023/06/28 00:57:34;;;;;;;15.57;8.30;;;;;;;;;;6338343;22;20042;-68
2023/06/28 01:00:02;;;;;;;10.35;7.97;;;;;;;;;;6338573;22;20509;-68
2023/06/28 01:02:30;;;;;;;10.50;7.65;;;;;;;;;;6338908;22;20014;-68
2023/06/28 01:04:59;;;;;;;10.75;8.20;;;;;;;;;;6339236;22;20021;-68
2023/06/28 01:07:29;;;;;;;10.27;7.95;;;;;;;;;;6311215;22;20102;-68
2023/06/28 01:09:58;;;;;;;13.73;8.32;;;;;;;;;;6311310;22;20023;-68
2023/06/28 01:12:26;;;;;;;11.05;8.02;;;;;;;;;;6311066;22;20030;-68
2023/06/28 01:14:53;;;;;;;10.70;8.13;;;;;;;;;;6310937;22;20019;-68
2023/06/28 01:17:21;;;;;;;11.02;8.10;;;;;;;;;;6338721;22;20341;-68
2023/06/28 01:19:48;;;;;;;11.25;8.07;;;;;;;;;;6311341;22;20023;-69
2023/06/28 01:22:16;;;;;;;12.10;8.07;;;;;;;;;;6310796;22;20119;-68
2023/06/28 01:24:46;;;;;;;10.65;7.72;;;;;;;;;;6311372;22;20046;-68
2023/06/28 01:27:14;;;;;;;10.15;8.35;;;;;;;;;;6311447;22;20026;-68
2023/06/28 01:29:42;;;;;;;9.75;8.10;;;;;;;;;;6310877;22;20015;-68
2023/06/28 01:32:11;;;;;;;13.60;9.35;;;;;;;;;;6310955;22;20095;-68
2023/06/28 01:34:38;;;;;;;15.18;8.48;;;;;;;;;;6338524;22;20407;-68
2023/06/28 01:37:06;;;;;;;10.95;8.70;;;;;;;;;;6311238;22;20414;-68
2023/06/28 01:39:33;;;;;;;11.07;8.07;;;;;;;;;;6338658;22;20383;-68
2023/06/28 01:42:01;;;;;;;9.93;8.35;;;;;;;;;;6338227;22;20019;-68
2023/06/28 01:44:29;;;;;;;10.88;8.23;;;;;;;;;;6337888;22;20010;-68
2023/06/28 01:46:57;;;;;;;10.30;8.30;;;;;;;;;;6338221;22;20057;-68
2023/06/28 01:49:25;;;;;;;11.45;8.68;;;;;;;;;;6310600;22;20038;-68
2023/06/28 01:51:54;;;;;;;10.43;8.23;;;;;;;;;;6310895;22;20029;-68
2023/06/28 01:54:21;;;;;;;10.55;8.32;;;;;;;;;;6310786;22;20022;-68
2023/06/28 01:56:49;;;;;;;11.52;8.55;;;;;;;;;;6311248;22;20030;-68
2023/06/28 01:59:17;;;;;;;11.15;8.00;;;;;;;;;;6311247;22;20014;-68
2023/06/28 02:01:45;;;;;;;9.45;8.27;;;;;;;;;;6338654;22;20019;-68
2023/06/28 02:04:13;;;;;;;11.70;8.30;;;;;;;;;;6339242;22;20021;-69
2023/06/28 02:06:43;;;;;;;10.68;8.77;;;;;;;;;;6312538;22;20030;-68
2023/06/28 02:09:10;;;;;;;10.82;8.77;;;;;;;;;;6312636;22;20072;-68
2023/06/28 02:11:38;;;;;;;11.65;8.60;;;;;;;;;;6313592;22;20018;-68
2023/06/28 02:14:05;;;;;;;11.48;8.85;;;;;;;;;;6312502;22;20023;-68
2023/06/28 02:16:33;;;;;;;11.50;8.63;;;;;;;;;;6312614;22;20031;-67
2023/06/28 02:19:03;;;;;;;9.80;8.52;;;;;;;;;;6312515;22;20022;-68
2023/06/28 02:21:31;;;;;;;9.50;8.52;;;;;;;;;;6312541;22;20072;-68
2023/06/28 02:23:58;;;;;;;12.15;9.07;;;;;;;;;;6312669;22;20444;-68
2023/06/28 02:26:26;;;;;;;10.00;8.43;;;;;;;;;;6312190;22;20023;-68
2023/06/28 02:28:53;;;;;;;14.10;8.77;;;;;;;;;;6312188;22;20019;-68
2023/06/28 02:31:21;;;;;;;11.15;8.90;;;;;;;;;;6312799;22;20050;-68
2023/06/28 02:33:49;;;;;;;12.45;8.82;;;;;;;;;;6313305;22;20017;-68
2023/06/28 02:36:16;;;;;;;14.73;9.55;;;;;;;;;;6312240;22;20022;-68
2023/06/28 02:38:44;;;;;;;12.02;9.15;;;;;;;;;;6311866;22;20441;-68
2023/06/28 02:41:11;;;;;;;13.90;9.13;;;;;;;;;;6312008;22;20400;-68
2023/06/28 02:43:38;;;;;;;12.55;9.20;;;;;;;;;;6312141;22;20018;-68
2023/06/28 02:46:07;;;;;;;10.10;8.65;;;;;;;;;;6312683;22;20068;-68
2023/06/28 02:48:34;;;;;;;13.77;9.02;;;;;;;;;;6311847;22;20269;-68
2023/06/28 02:51:03;;;;;;;12.52;8.68;;;;;;;;;;6312087;22;20329;-68
2023/06/28 02:53:31;;;;;;;11.23;9.20;;;;;;;;;;6339573;22;20103;-68
2023/06/28 02:55:59;;;;;;;13.82;8.85;;;;;;;;;;6339663;22;20057;-68
2023/06/28 02:58:48;;;;;;;12.45;9.25;;;;;;;;;;6338321;22;20096;-67
2023/06/28 03:01:16;;;;;;;11.70;9.13;;;;;;;;;;6311886;22;20046;-67
2023/06/28 03:03:44;;;;;;;14.65;9.02;;;;;;;;;;6312242;22;20022;-67
2023/06/28 03:06:12;;;;;;;13.43;9.10;;;;;;;;;;6311532;22;20090;-67
2023/06/28 03:08:40;;;;;;;12.00;9.18;;;;;;;;;;6311924;22;20022;-67
2023/06/28 03:11:08;;;;;;;11.00;9.52;;;;;;;;;;6338736;22;20011;-68
2023/06/28 03:13:36;;;;;;;14.90;9.18;;;;;;;;;;6310922;22;20170;-67
2023/06/28 03:16:04;;;;;;;10.68;8.40;;;;;;;;;;6310868;22;20045;-67
2023/06/28 03:18:32;;;;;;;13.15;9.50;;;;;;;;;;6311884;22;20030;-66
2023/06/28 03:20:59;;;;;;;12.68;8.77;;;;;;;;;;6312038;22;20105;-66
2023/06/28 03:23:27;;;;;;;11.93;8.52;;;;;;;;;;6311513;22;20045;-66
2023/06/28 03:25:54;;;;;;;14.63;8.80;;;;;;;;;;6311130;22;20021;-67
2023/06/28 03:28:22;;;;;;;13.50;8.57;;;;;;;;;;6310926;22;20075;-67
2023/06/28 03:30:49;;;;;;;13.55;8.90;;;;;;;;;;6311673;22;20019;-67
2023/06/28 03:33:17;;;;;;;10.07;8.70;;;;;;;;;;6311558;22;20093;-66
2023/06/28 03:35:45;;;;;;;10.50;8.40;;;;;;;;;;6339427;22;20021;-66
2023/06/28 03:38:13;;;;;;;12.25;8.68;;;;;;;;;;6339146;22;20090;-66
2023/06/28 03:40:41;;;;;;;12.98;9.38;;;;;;;;;;6311641;22;20068;-67
2023/06/28 03:43:09;;;;;;;9.98;8.80;;;;;;;;;;6311303;22;20326;-66
2023/06/28 03:45:37;;;;;;;13.82;9.38;;;;;;;;;;6338589;22;20019;-67
2023/06/28 03:48:04;;;;;;;12.00;8.43;;;;;;;;;;6311197;22;20076;-67
2023/06/28 03:50:32;;;;;;;12.20;8.80;;;;;;;;;;6305620;22;20023;-67
2023/06/28 03:53:00;;;;;;;13.32;9.15;;;;;;;;;;6306639;22;20535;-67
2023/06/28 03:55:30;;;;;;;16.00;8.90;;;;;;;;;;6281100;22;20442;-67
2023/06/28 03:57:58;;;;;;;13.13;8.80;;;;;;;;;;6305693;22;20054;-66
2023/06/28 04:00:25;;;;;;;13.45;8.98;;;;;;;;;;6335562;22;20522;-66
2023/06/28 04:02:53;;;;;;;11.70;8.82;;;;;;;;;;6336851;22;20014;-66
2023/06/28 04:05:20;;;;;;;12.18;9.10;;;;;;;;;;6337115;22;20018;-66
2023/06/28 04:07:54;;;;;;;12.23;9.13;;;;;;;;;;6338544;22;20010;-66
2023/06/28 04:10:22;;;;;;;9.20;7.93;;;;;;;;;;6338411;22;20444;-66
2023/06/28 04:12:49;;;;;;;10.57;9.05;;;;;;;;;;6310690;22;20440;-66
2023/06/28 04:15:17;;;;;;;14.20;8.93;;;;;;;;;;6338056;22;20018;-66
2023/06/28 04:17:44;;;;;;;14.88;9.45;;;;;;;;;;6308833;22;20038;-66
2023/06/28 04:20:12;;;;;;;11.70;8.52;;;;;;;;;;6335461;22;20042;-66
2023/06/28 04:22:40;;;;;;;11.57;9.20;;;;;;;;;;6335724;22;20015;-67
2023/06/28 04:25:07;;;;;;;13.25;9.07;;;;;;;;;;6336674;22;20045;-66
2023/06/28 04:27:35;;;;;;;11.35;8.98;;;;;;;;;;6337144;22;20018;-66
2023/06/28 04:30:02;;;;;;;10.40;9.30;;;;;;;;;;6337438;22;20483;-66
2023/06/28 04:32:30;;;;;;;12.60;8.93;;;;;;;;;;6338374;22;20015;-66
2023/06/28 04:34:59;;;;;;;18.25;9.20;;;;;;;;;;6338450;22;20093;-66
2023/06/28 04:37:27;;;;;;;10.82;9.30;;;;;;;;;;6338493;22;20411;-66
2023/06/28 04:39:55;;;;;;;11.07;9.70;;;;;;;;;;6311572;22;20014;-67
2023/06/28 04:42:23;;;;;;;14.75;9.95;;;;;;;;;;6338441;22;20014;-66
2023/06/28 04:44:51;;;;;;;14.93;11.98;;;;;;;;;;6338218;22;20321;-66
2023/06/28 04:47:18;;;;;;;12.35;9.48;;;;;;;;;;6310489;22;20471;-66
2023/06/28 04:49:49;;;;;;;10.30;8.70;;;;;;;;;;6338406;22;20091;-66
2023/06/28 04:52:18;;;;;;;15.05;9.43;;;;;;;;;;6338513;22;20072;-66
2023/06/28 04:54:46;;;;;;;12.18;8.98;;;;;;;;;;6337294;22;20015;-66
2023/06/28 04:57:20;;;;;;;23.75;10.45;;;;;;;;;;6338148;22;20025;-66
2023/06/28 04:59:48;;;;;;;17.17;9.60;;;;;;;;;;6337758;22;20056;-66
2023/06/28 05:02:15;;;;;;;16.58;9.75;;;;;;;;;;6338139;22;20297;-66
2023/06/28 05:04:43;;;;;;;13.55;9.55;;;;;;;;;;6338123;22;20015;-66
2023/06/28 05:07:10;;;;;;;12.35;9.98;;;;;;;;;;6337501;22;20011;-66
2023/06/28 05:09:38;;;;;;;14.55;10.10;;;;;;;;;;6337617;22;20022;-66
2023/06/28 05:12:06;;;;;;;11.63;9.35;;;;;;;;;;6337998;22;20086;-66
2023/06/28 05:14:34;;;;;;;14.27;9.85;;;;;;;;;;6310433;22;20023;-66
2023/06/28 05:17:01;;;;;;;12.63;9.45;;;;;;;;;;6338283;22;20015;-66
2023/06/28 05:19:29;;;;;;;12.18;9.15;;;;;;;;;;6338290;22;20010;-66
2023/06/28 05:21:57;;;;;;;12.85;9.55;;;;;;;;;;6310272;22;20400;-66
2023/06/28 05:24:24;;;;;;;15.70;9.85;;;;;;;;;;6338034;22;20060;-66
2023/06/28 05:26:52;;;;;;;21.80;9.73;;;;;;;;;;6338158;22;20340;-66
2023/06/28 05:29:19;;;;;;;13.38;9.30;;;;;;;;;;6338092;22;20041;-66
2023/06/28 05:31:47;;;;;;;11.40;9.20;;;;;;;;;;6338210;22;20019;-67
2023/06/28 05:34:14;;;;;;;10.70;8.38;;;;;;;;;;6309872;22;20438;-67
2023/06/28 05:36:42;;;;;;;12.80;9.63;;;;;;;;;;6337759;22;20047;-66
2023/06/28 05:39:10;;;;;;;11.50;8.82;;;;;;;;;;6338754;22;20021;-66
2023/06/28 05:41:40;;;;;;;15.82;9.52;;;;;;;;;;6339909;22;20085;-66
2023/06/28 05:44:07;;;;;;;13.32;9.02;;;;;;;;;;6339179;22;20460;-66
2023/06/28 05:46:35;;;;;;;11.43;9.63;;;;;;;;;;6311499;22;20060;-66
2023/06/28 05:49:07;;;;;;;9.93;8.55;;;;;;;;;;6339117;22;20015;-66
2023/06/28 05:51:36;;;;;;;12.55;8.95;;;;;;;;;;6312096;22;20498;-66
2023/06/28 05:54:04;;;;;;;15.60;8.60;;;;;;;;;;6339744;22;20034;-66
2023/06/28 05:56:32;;;;;;;18.92;8.60;;;;;;;;;;6327512;22;20054;-66
2023/06/28 05:59:00;;;;;;;9.68;8.60;;;;;;;;;;6312804;22;20010;-66
2023/06/28 06:01:28;;;;;;;12.60;9.07;;;;;;;;;;6338769;22;20022;-66
2023/06/28 06:03:56;;;;;;;13.65;9.00;;;;;;;;;;6338829;22;20014;-66
2023/06/28 06:06:24;;;;;;;12.50;8.35;;;;;;;;;;6339748;22;20014;-66
2023/06/28 06:08:51;;;;;;;10.50;7.55;;;;;;;;;;6312470;22;20017;-67
2023/06/28 06:11:19;;;;;;;12.18;8.23;;;;;;;;;;6339558;22;20045;-67
2023/06/28 06:13:46;;;;;;;10.48;8.20;;;;;;;;;;6338538;22;20014;-68
2023/06/28 06:16:14;;;;;;;10.52;8.40;;;;;;;;;;6339290;22;20044;-67
2023/06/28 06:18:42;;;;;;;9.75;8.73;;;;;;;;;;6339522;22;20015;-68
2023/06/28 06:21:10;;;;;;;11.10;8.70;;;;;;;;;;6310535;22;20018;-67
2023/06/28 06:23:37;;;;;;;10.40;7.95;;;;;;;;;;6338552;22;20019;-67
2023/06/28 06:26:04;;;;;;;18.50;7.65;;;;;;;;;;6338226;22;20018;-68
2023/06/28 06:28:32;;;;;;;11.38;8.25;;;;;;;;;;6325834;22;20021;-67
2023/06/28 06:30:59;;;;;;;11.85;7.70;;;;;;;;;;6338191;22;20023;-65
2023/06/28 06:33:28;;;;;;;12.63;8.10;;;;;;;;;;6338890;22;20042;-67
2023/06/28 06:35:56;;;;;;;10.90;7.38;;;;;;;;;;6312110;22;20022;-68
2023/06/28 06:38:24;;;;;;;12.52;7.68;;;;;;;;;;6338880;22;20014;-69
2023/06/28 06:40:51;;;;;;;10.63;7.47;;;;;;;;;;6340963;22;20061;-67
2023/06/28 06:43:18;;;;;;;9.93;7.18;;;;;;;;;;6340106;22;20037;-67
2023/06/28 06:45:46;;;;;;;12.10;7.60;;;;;;;;;;6312911;22;20025;-68
2023/06/28 06:48:13;;;;;;;9.63;7.63;;;;;;;;;;6312695;22;20019;-68
2023/06/28 06:50:41;;;;;;;11.43;7.70;;;;;;;;;;6339219;22;20017;-68
2023/06/28 06:53:09;;;;;;;10.63;7.80;;;;;;;;;;6312390;22;20018;-68
2023/06/28 06:55:36;;;;;;;8.45;7.55;;;;;;;;;;6338499;22;20015;-67
2023/06/28 06:58:04;;;;;;;13.07;8.18;;;;;;;;;;6338401;22;20014;-68
2023/06/28 07:00:31;;;;;;;10.18;7.80;;;;;;;;;;6326544;22;20019;-68
2023/06/28 07:02:59;;;;;;;10.63;7.05;;;;;;;;;;6338410;22;20010;-68
2023/06/28 07:05:26;;;;;;;12.13;8.10;;;;;;;;;;6338119;22;20532;-67
2023/06/28 07:07:54;;;;;;;9.80;7.90;;;;;;;;;;6338203;22;20033;-69
2023/06/28 07:10:22;;;;;;;9.40;7.00;;;;;;;;;;6312126;22;20045;-68
2023/06/28 07:12:49;;;;;;;9.80;7.18;;;;;;;;;;6339485;22;20066;-69
2023/06/28 07:15:17;;;;;;;10.30;6.60;;;;;;;;;;6338415;22;20042;-68
2023/06/28 07:17:44;;;;;;;9.73;6.97;;;;;;;;;;6339257;22;20082;-68
2023/06/28 07:20:12;;;;;;;9.30;6.57;;;;;;;;;;6310913;22;20037;-68
2023/06/28 07:22:40;;;;;;;11.10;6.85;;;;;;;;;;6338444;22;20091;-68
2023/06/28 07:25:07;;;;;;;10.07;7.03;;;;;;;;;;6338219;22;20064;-68
2023/06/28 07:27:35;;;;;;;9.48;6.65;;;;;;;;;;6337818;22;20019;-69
2023/06/28 07:30:03;;;;;;;9.65;7.03;;;;;;;;;;6338160;22;20018;-68
2023/06/28 07:32:31;;;;;;;9.10;7.45;;;;;;;;;;6310599;22;20019;-68
2023/06/28 07:34:59;;;;;;;10.85;7.65;;;;;;;;;;6339380;22;20022;-69
2023/06/28 07:37:30;;;;;;;10.63;7.25;;;;;;;;;;6339457;22;20018;-67
2023/06/28 07:39:58;;;;;;;10.95;6.63;;;;;;;;;;6338932;22;20015;-68
2023/06/28 07:42:27;;;;;;;13.40;7.00;;;;;;;;;;6309582;22;20049;-67
2023/06/28 07:44:54;;;;;;;9.25;6.50;;;;;;;;;;6338063;22;20022;-67
2023/06/28 07:47:22;;;;;;;8.60;6.97;;;;;;;;;;6338844;22;20019;-67
2023/06/28 07:49:49;;;;;;;7.78;6.80;;;;;;;;;;6338757;22;20014;-67
2023/06/28 07:52:17;;;;;;;11.27;6.22;;;;;;;;;;6339159;22;20440;-67
2023/06/28 07:54:44;;;;;;;8.52;6.30;;;;;;;;;;6338598;22;20391;-67
2023/06/28 07:57:12;;;;;;;10.88;7.10;;;;;;;;;;6337685;22;20019;-67
2023/06/28 07:59:39;;;;;;;9.48;6.32;;;;;;;;;;6337727;22;20015;-68
2023/06/28 08:02:07;;;;;;;11.73;7.28;;;;;;;;;;6338515;22;20089;-67
2023/06/28 08:04:34;;;;;;;10.98;7.05;;;;;;;;;;6340297;22;20420;-67
2023/06/28 08:07:06;;;;;;;11.20;7.10;;;;;;;;;;6339749;22;20038;-67
2023/06/28 08:09:33;;;;;;;11.40;7.82;;;;;;;;;;6339247;22;20019;-68
2023/06/28 08:12:01;;;;;;;12.30;7.53;;;;;;;;;;6339463;22;20022;-69
2023/06/28 08:14:28;;;;;;;14.05;8.10;;;;;;;;;;6312219;22;20022;-68
2023/06/28 08:16:56;;;;;;;11.32;7.95;;;;;;;;;;6339334;22;20310;-68
2023/06/28 08:19:24;;;;;;;8.68;7.25;;;;;;;;;;6339761;22;20505;-67
2023/06/28 08:21:52;;;;;;;9.40;7.25;;;;;;;;;;6339278;22;20102;-68
2023/06/28 08:24:19;;;;;;;9.50;7.32;;;;;;;;;;6338729;22;20026;-67
2023/06/28 08:26:47;;;;;;;8.02;7.07;;;;;;;;;;6311307;22;20354;-68
2023/06/28 08:29:16;;;;;;;8.02;6.70;;;;;;;;;;6339962;22;20018;-68
2023/06/28 08:31:44;;;;;;;10.98;7.05;;;;;;;;;;6339407;22;20018;-68
2023/06/28 08:34:11;;;;;;;8.23;6.72;;;;;;;;;;6339528;22;20026;-68
2023/06/28 08:36:39;;;;;;;12.93;6.40;;;;;;;;;;6339318;22;20018;-68
2023/06/28 08:39:06;;;;;;;8.35;6.05;;;;;;;;;;6339289;22;20393;-68
2023/06/28 08:41:37;;;;;;;9.57;6.90;;;;;;;;;;6339483;22;20011;-68
2023/06/28 08:44:06;;;;;;;8.45;5.90;;;;;;;;;;6339733;22;20420;-68
2023/06/28 08:46:34;;;;;;;9.43;6.10;;;;;;;;;;6339242;22;20015;-68
2023/06/28 08:49:02;;;;;;;11.18;6.82;;;;;;;;;;6338568;22;20019;-67
2023/06/28 08:51:31;;;;;;;10.10;6.80;;;;;;;;;;6339421;22;20049;-67
2023/06/28 08:53:59;;;;;;;8.00;6.32;;;;;;;;;;6339049;22;20019;-69
2023/06/28 08:56:29;;;;;;;7.65;6.45;;;;;;;;;;6311576;22;20019;-68
2023/06/28 08:58:57;;;;;;;7.70;6.32;;;;;;;;;;6339731;22;20370;-68
2023/06/28 09:01:25;;;;;;;8.57;7.18;;;;;;;;;;6340005;22;20450;-69
2023/06/28 09:03:52;;;;;;;10.02;6.43;;;;;;;;;;6338966;22;20048;-68
2023/06/28 09:06:20;;;;;;;10.35;6.35;;;;;;;;;;6339041;22;20510;-67
2023/06/28 09:08:48;;;;;;;12.65;6.30;;;;;;;;;;6339856;22;20038;-68
2023/06/28 09:11:16;;;;;;;10.02;5.95;;;;;;;;;;6338763;22;20386;-67
2023/06/28 09:13:50;;;;;;;9.80;6.25;;;;;;;;;;6340536;22;20377;-68
2023/06/28 09:16:18;;;;;;;11.45;7.38;;;;;;;;;;6313198;22;20018;-68
2023/06/28 09:18:46;;;;;;;11.93;7.20;;;;;;;;;;6341211;22;20360;-68
2023/06/28 09:21:24;;;;;;;11.25;7.22;;;;;;;;;;6340608;22;20018;-68
2023/06/28 09:23:51;;;;;;;9.20;6.47;;;;;;;;;;6340669;22;20019;-67
2023/06/28 09:26:19;;;;;;;8.88;6.22;;;;;;;;;;6341069;22;20030;-67
2023/06/28 09:28:47;;;;;;;8.90;6.75;;;;;;;;;;6340863;22;20429;-68
2023/06/28 09:31:18;;;;;;;8.52;5.70;;;;;;;;;;6341082;22;20348;-68
2023/06/28 09:33:46;;;;;;;7.30;6.10;;;;;;;;;;6313546;22;20101;-68
2023/06/28 09:36:13;;;;;;;7.90;5.88;;;;;;;;;;6340639;22;20021;-67
2023/06/28 09:38:44;;;;;;;12.50;5.65;;;;;;;;;;6340355;22;20024;-68
2023/06/28 09:41:12;;;;;;;8.68;6.13;;;;;;;;;;6313389;22;20512;-68
2023/06/28 09:43:41;;;;;;;7.90;5.63;;;;;;;;;;6313426;22;20419;-68
2023/06/28 09:46:16;;;;;;;9.45;6.32;;;;;;;;;;6341068;22;20041;-67
2023/06/28 09:48:44;;;;;;;13.60;5.97;;;;;;;;;;6341005;22;20014;-69
2023/06/28 09:51:15;;;;;;;9.43;5.97;;;;;;;;;;6341284;22;20090;-69
2023/06/28 09:53:49;;;;;;;10.43;5.43;;;;;;;;;;6340923;22;20045;-68
2023/06/28 09:56:17;;;;;;;9.45;5.15;;;;;;;;;;6341240;22;20026;-69
2023/06/28 09:58:48;;;;;;;11.07;5.97;;;;;;;;;;6340846;22;20019;-68
2023/06/28 10:01:16;;;;;;;8.52;4.63;;;;;;;;;;6340537;22;20018;-68
2023/06/28 10:03:44;;;;;;;11.23;5.28;;;;;;;;;;6340539;22;20071;-69
2023/06/28 10:06:14;;;;;;;7.57;4.78;;;;;;;;;;6339690;22;20068;-68
2023/06/28 10:08:41;;;;;;;9.43;6.15;;;;;;;;;;6313009;22;20061;-68
2023/06/28 10:11:13;;;;;;;9.48;4.78;;;;;;;;;;6314104;22;20015;-68
2023/06/28 10:13:41;;;;;;;12.23;4.97;;;;;;;;;;6340875;22;20022;-67
2023/06/28 10:16:18;;;;;;;9.05;4.10;;;;;;;;;;6340663;22;20336;-68
2023/06/28 10:18:46;;;;;;;6.88;3.95;;;;;;;;;;6313588;22;20088;-68
2023/06/28 10:21:13;;;;;;;10.68;3.90;;;;;;;;;;6341012;22;20037;-68
2023/06/28 10:23:41;;;;;;;10.82;3.88;;;;;;;;;;6340837;22;20019;-70
2023/06/28 10:26:09;;;;;;;11.38;3.92;;;;;;;;;;6339827;22;20011;-69
2023/06/28 10:28:40;;;;;;;13.70;4.10;;;;;;;;;;6312717;22;20019;-69
2023/06/28 10:31:08;;;;;;;12.48;4.78;;;;;;;;;;6340588;22;20337;-68
2023/06/28 10:33:36;;;;;;;7.82;4.88;;;;;;;;;;6312092;22;20415;-68
2023/06/28 10:36:04;;;;;;;7.75;4.80;;;;;;;;;;6339736;22;20034;-68
2023/06/28 10:38:33;;;;;;;5.10;4.20;;;;;;;;;;6327372;22;20019;-69
2023/06/28 10:41:04;;;;;;;5.47;3.80;;;;;;;;;;6340467;22;20022;-68
2023/06/28 10:43:32;;;;;;;13.48;4.40;;;;;;;;;;6340476;22;20375;-68
2023/06/28 10:45:59;;;;;;;8.27;4.07;;;;;;;;;;6312701;22;20018;-68
2023/06/28 10:48:27;;;;;;;16.40;3.95;;;;;;;;;;6340391;22;20082;-68
2023/06/28 10:50:58;;;;;;;8.43;3.88;;;;;;;;;;6340643;22;20448;-68
2023/06/28 10:53:26;;;;;;;7.28;3.70;;;;;;;;;;6340283;22;20019;-67
2023/06/28 10:56:11;;;;;;;9.85;5.32;;;;;;;;;;6339912;22;20029;-67
2023/06/28 10:58:38;;;;;;;11.20;3.90;;;;;;;;;;6340129;22;20424;-68
2023/06/28 11:01:13;;;;;;;7.88;3.90;;;;;;;;;;6340185;22;20086;-66
2023/06/28 11:03:44;;;;;;;7.10;3.60;;;;;;;;;;6340505;22;20014;-68
2023/06/28 11:06:12;;;;;;;13.15;3.97;;;;;;;;;;6339642;22;20433;-68
2023/06/28 11:08:44;;;;;;;10.93;3.72;;;;;;;;;;6340189;22;20014;-69
2023/06/28 11:11:34;;;;;;;7.28;3.47;;;;;;;;;;6312550;22;20311;-69
2023/06/28 11:14:18;;;;;;;5.88;3.50;;;;;;;;;;6339670;22;20364;-67
2023/06/28 11:16:48;;;;;;;7.05;3.58;;;;;;;;;;6312164;22;20473;-68
2023/06/28 11:19:18;;;;;;;9.48;3.47;;;;;;;;;;6339596;22;20014;-66
2023/06/28 11:21:55;;;;;;;8.15;3.63;;;;;;;;;;6340172;22;20011;-67
2023/06/28 11:24:46;;;;;;;13.85;3.75;;;;;;;;;;6340052;22;20095;-67
2023/06/28 11:27:14;;;;;;;8.48;3.22;;;;;;;;;;6315420;22;20076;-68
2023/06/28 11:29:52;;;;;;;6.43;3.70;;;;;;;;;;6339551;22;20413;-66
2023/06/28 11:32:27;;;;;;;9.48;3.83;;;;;;;;;;6339106;22;20505;-67
2023/06/28 11:34:56;;;;;;;5.60;3.85;;;;;;;;;;6339757;22;20463;-67
2023/06/28 11:37:24;;;;;;;7.75;3.70;;;;;;;;;;6340021;22;20345;-67
2023/06/28 11:39:51;;;;;;;11.10;3.90;;;;;;;;;;6339524;22;20086;-68
2023/06/28 11:42:20;;;;;;;5.97;3.97;;;;;;;;;;6312443;22;20025;-67
2023/06/28 11:44:48;;;;;;;6.32;3.97;;;;;;;;;;6335925;22;20046;-68
2023/06/28 11:47:20;;;;;;;7.28;4.20;;;;;;;;;;6339958;22;20444;-68
2023/06/28 11:49:53;;;;;;;7.25;3.90;;;;;;;;;;6314037;22;20015;-68
2023/06/28 11:52:24;;;;;;;11.35;4.82;;;;;;;;;;6340158;22;20011;-68
2023/06/28 11:54:52;;;;;;;7.18;4.18;;;;;;;;;;6339973;22;20010;-69
2023/06/28 11:57:20;;;;;;;7.35;4.50;;;;;;;;;;6339642;22;20011;-68
2023/06/28 11:59:51;;;;;;;9.02;4.18;;;;;;;;;;6339446;22;20019;-68
2023/06/28 12:02:18;;;;;;;6.63;4.07;;;;;;;;;;6338954;22;20018;-68
2023/06/28 12:04:59;;;;;;;7.60;4.72;;;;;;;;;;6339398;22;20018;-68
2023/06/28 12:07:28;;;;;;;11.77;4.50;;;;;;;;;;6339737;22;20011;-68
2023/06/28 12:09:56;;;;;;;9.80;4.55;;;;;;;;;;6339860;22;20018;-69
2023/06/28 12:12:34;;;;;;;6.93;4.03;;;;;;;;;;6339463;22;20021;-68
2023/06/28 12:15:03;;;;;;;8.27;4.15;;;;;;;;;;6339483;22;20064;-68
2023/06/28 12:17:40;;;;;;;8.00;4.25;;;;;;;;;;6339420;22;20417;-68
2023/06/28 12:20:12;;;;;;;7.03;4.10;;;;;;;;;;6311358;22;20086;-68
2023/06/28 12:22:46;;;;;;;6.57;4.05;;;;;;;;;;6339080;22;20019;-68
2023/06/28 12:25:25;;;;;;;7.50;4.45;;;;;;;;;;6339119;22;20088;-69
2023/06/28 12:28:05;;;;;;;7.28;4.32;;;;;;;;;;6338695;22;20021;-69
2023/06/28 12:30:33;;;;;;;7.93;5.38;;;;;;;;;;6339341;22;20023;-68
2023/06/28 12:33:06;;;;;;;10.02;5.07;;;;;;;;;;6339553;22;20094;-69
2023/06/28 12:35:37;;;;;;;10.07;5.20;;;;;;;;;;6339167;22;20014;-68
2023/06/28 12:38:05;;;;;;;12.23;5.47;;;;;;;;;;6311438;22;20060;-68
2023/06/28 12:40:33;;;;;;;10.90;6.00;;;;;;;;;;6326756;22;20094;-69
2023/06/28 12:43:18;;;;;;;7.82;4.95;;;;;;;;;;6311535;22;20039;-68
2023/06/28 12:45:50;;;;;;;8.13;5.45;;;;;;;;;;6339119;22;20015;-68
2023/06/28 12:48:18;;;;;;;12.82;5.95;;;;;;;;;;6338500;22;20061;-68
2023/06/28 12:50:49;;;;;;;12.02;5.82;;;;;;;;;;6338452;22;20499;-68
2023/06/28 12:53:18;;;;;;;11.10;5.43;;;;;;;;;;6338175;22;20072;-68
2023/06/28 12:55:45;;;;;;;9.95;5.30;;;;;;;;;;6311302;22;20061;-69
2023/06/28 12:58:13;;;;;;;8.15;5.97;;;;;;;;;;6338331;22;20025;-67
2023/06/28 13:00:44;;;;;;;8.48;5.72;;;;;;;;;;6311254;22;20014;-67
2023/06/28 13:03:14;;;;;;;8.48;5.60;;;;;;;;;;6337497;22;20445;-67
2023/06/28 13:05:42;;;;;;;9.38;5.93;;;;;;;;;;6338244;22;20477;-67
2023/06/28 13:08:11;;;;;;;13.80;7.97;;;;;;;;;;6338694;22;20014;-67
2023/06/28 13:10:39;;;;;;;15.27;7.78;;;;;;;;;;6338520;22;20444;-67
2023/06/28 13:13:07;;;;;;;16.42;8.25;;;;;;;;;;6338054;22;20102;-67
2023/06/28 13:15:36;;;;;;;12.82;7.03;;;;;;;;;;6338150;22;20092;-68
2023/06/28 13:18:04;;;;;;;8.40;6.88;;;;;;;;;;6338189;22;20019;-67
2023/06/28 13:20:31;;;;;;;13.23;7.15;;;;;;;;;;6337866;22;20018;-68
2023/06/28 13:22:59;;;;;;;8.20;6.22;;;;;;;;;;6338249;22;20019;-67
2023/06/28 13:25:26;;;;;;;10.48;6.40;;;;;;;;;;6310755;22;20015;-67
2023/06/28 13:27:54;;;;;;;8.82;6.20;;;;;;;;;;6338006;22;20019;-68
2023/06/28 13:30:22;;;;;;;7.05;5.90;;;;;;;;;;6337334;22;20038;-67
2023/06/28 13:32:53;;;;;;;7.72;5.40;;;;;;;;;;6310425;22;20102;-66
2023/06/28 13:35:21;;;;;;;7.85;5.72;;;;;;;;;;6337629;22;20007;-66
2023/06/28 13:37:49;;;;;;;10.05;5.80;;;;;;;;;;6338256;22;20015;-67
2023/06/28 13:40:19;;;;;;;6.80;5.05;;;;;;;;;;6338064;22;20018;-67
2023/06/28 13:42:46;;;;;;;6.57;5.65;;;;;;;;;;6338620;22;20015;-67
2023/06/28 13:45:14;;;;;;;8.50;5.53;;;;;;;;;;6285418;22;20105;-65
2023/06/28 13:47:43;;;;;;;7.60;5.72;;;;;;;;;;6338539;22;20068;-67
2023/06/28 13:50:11;;;;;;;6.97;5.38;;;;;;;;;;6338494;22;20060;-67
2023/06/28 13:52:38;;;;;;;7.80;5.75;;;;;;;;;;6337797;22;20072;-67
2023/06/28 13:55:06;;;;;;;9.05;5.40;;;;;;;;;;6307858;22;20029;-68
2023/06/28 13:57:34;;;;;;;6.47;5.07;;;;;;;;;;6310042;22;20086;-68
2023/06/28 14:00:01;;;;;;;11.02;5.55;;;;;;;;;;6337577;22;20025;-68
2023/06/28 14:02:31;;;;;;;11.05;5.85;;;;;;;;;;6338725;22;20018;-67
2023/06/28 14:04:59;;;;;;;9.50;5.88;;;;;;;;;;6339467;22;20030;-68
2023/06/28 14:07:28;;;;;;;10.57;5.78;;;;;;;;;;6338931;22;20509;-66
2023/06/28 14:09:55;;;;;;;10.40;6.88;;;;;;;;;;6311833;22;20333;-67
2023/06/28 14:12:23;;;;;;;7.43;5.75;;;;;;;;;;6339518;22;20080;-67
2023/06/28 14:14:50;;;;;;;8.38;5.93;;;;;;;;;;6339794;22;20048;-68
2023/06/28 14:17:18;;;;;;;7.55;6.28;;;;;;;;;;6339407;22;20018;-66
2023/06/28 14:19:45;;;;;;;8.02;5.88;;;;;;;;;;6339783;22;20018;-67
2023/06/28 14:22:13;;;;;;;10.98;6.72;;;;;;;;;;6339565;22;20490;-67
2023/06/28 14:24:41;;;;;;;9.43;6.57;;;;;;;;;;6311128;22;20076;-68
2023/06/28 14:27:10;;;;;;;9.18;6.63;;;;;;;;;;6339489;22;20010;-67
2023/06/28 14:29:38;;;;;;;10.57;6.57;;;;;;;;;;6340235;22;20015;-68
2023/06/28 14:32:05;;;;;;;9.32;6.45;;;;;;;;;;6339164;22;20018;-66
2023/06/28 14:34:33;;;;;;;10.45;6.80;;;;;;;;;;6339851;22;20019;-67
2023/06/28 14:37:01;;;;;;;10.00;7.22;;;;;;;;;;6339356;22;20015;-67
2023/06/28 14:39:28;;;;;;;7.20;5.68;;;;;;;;;;6339148;22;20648;-67
2023/06/28 14:41:56;;;;;;;6.55;5.03;;;;;;;;;;6339238;22;20017;-66
2023/06/28 14:44:23;;;;;;;6.90;5.00;;;;;;;;;;6338724;22;20023;-67